Time;durP1;ratioP1;P1;durP2;ratioP2;P2;SDS_P1;SDS_P2;PMS_P1;PMS_P2;Temp;Humidity;BMP_temperature;BMP_pressure;BME280_temperature;BME280_humidity;BME280_pressure;Samples;Min_cycle;Max_cycle;Signal;HPM_P1;HPM_P2
2023/02/02 00:01:55;;;;;;;9.90;2.55;;;5.40;99.90;;;;;;5080006;28;20028;-68
2023/02/02 00:04:24;;;;;;;12.00;1.92;;;5.40;99.90;;;;;;5076673;28;20691;-68
2023/02/02 00:06:50;;;;;;;7.43;1.60;;;5.40;99.90;;;;;;5068138;28;20396;-68
2023/02/02 00:09:18;;;;;;;7.32;2.20;;;5.40;99.90;;;;;;5076658;28;20024;-68
2023/02/02 00:11:45;;;;;;;9.70;1.80;;;5.40;99.90;;;;;;5063936;28;20028;-68
2023/02/02 00:14:11;;;;;;;10.18;2.25;;;5.40;99.90;;;;;;5076675;28;20044;-68
2023/02/02 00:16:38;;;;;;;7.47;1.42;;;5.40;99.90;;;;;;5077891;28;20028;-68
2023/02/02 00:19:25;;;;;;;10.20;2.33;;;5.40;99.90;;;;;;5070431;28;20021;-68
2023/02/02 00:21:52;;;;;;;10.68;1.77;;;5.40;99.90;;;;;;5066274;28;20466;-67
2023/02/02 00:24:18;;;;;;;12.75;2.78;;;5.40;99.90;;;;;;5072530;28;20132;-67
2023/02/02 00:26:49;;;;;;;10.30;2.22;;;5.40;99.90;;;;;;5076819;28;20052;-68
2023/02/02 00:29:18;;;;;;;13.57;2.90;;;5.40;99.90;;;;;;5073823;28;20025;-67
2023/02/02 00:31:44;;;;;;;9.52;1.77;;;5.40;99.90;;;;;;5074715;28;20071;-67
2023/02/02 00:34:11;;;;;;;9.27;1.83;;;5.40;99.90;;;;;;5076093;28;20052;-67
2023/02/02 00:36:37;;;;;;;12.93;2.03;;;5.40;99.90;;;;;;5070474;28;20542;-67
2023/02/02 00:39:03;;;;;;;11.52;2.53;;;5.40;99.90;;;;;;5072376;28;20219;-67
2023/02/02 00:41:28;;;;;;;5.93;1.75;;;5.40;99.90;;;;;;5078367;28;20431;-67
2023/02/02 00:46:39;;;;;;;8.60;1.92;;;5.50;99.90;;;;;;5083397;28;20035;-68
2023/02/02 00:49:05;;;;;;;11.80;2.47;;;5.50;99.90;;;;;;5077550;28;20024;-67
2023/02/02 00:51:30;;;;;;;10.45;2.22;;;5.60;99.90;;;;;;5075585;28;20119;-67
2023/02/02 00:53:56;;;;;;;9.05;1.63;;;5.60;99.90;;;;;;5072570;28;20056;-68
2023/02/02 00:56:22;;;;;;;13.07;2.10;;;5.70;99.90;;;;;;5073814;28;20439;-67
2023/02/02 00:58:47;;;;;;;13.30;2.75;;;5.70;99.90;;;;;;5073385;28;20029;-68
2023/02/02 01:01:19;;;;;;;12.23;3.05;;;5.70;99.90;;;;;;5073214;28;20346;-68
2023/02/02 01:03:45;;;;;;;7.82;2.00;;;5.70;99.90;;;;;;5073218;28;20036;-68
2023/02/02 01:06:11;;;;;;;12.05;1.95;;;5.80;99.90;;;;;;5072852;28;20029;-68
2023/02/02 01:08:36;;;;;;;11.88;2.00;;;5.80;99.90;;;;;;5073301;28;20024;-68
2023/02/02 01:11:02;;;;;;;9.20;1.85;;;5.80;99.90;;;;;;5072858;28;20025;-67
2023/02/02 01:13:27;;;;;;;9.18;1.75;;;5.70;99.90;;;;;;5072634;28;20028;-67
2023/02/02 01:15:57;;;;;;;6.88;2.28;;;5.80;99.90;;;;;;5073689;28;20024;-68
2023/02/02 01:18:23;;;;;;;11.02;2.03;;;5.80;99.90;;;;;;5073274;28;20124;-68
2023/02/02 01:20:59;;;;;;;7.88;1.92;;;5.80;99.90;;;;;;5073824;28;20032;-68
2023/02/02 01:23:25;;;;;;;10.48;2.22;;;5.80;99.90;;;;;;5073203;28;20032;-68
2023/02/02 01:25:55;;;;;;;10.77;2.25;;;5.70;99.90;;;;;;5076973;28;20048;-68
2023/02/02 01:28:21;;;;;;;6.65;1.80;;;5.80;99.90;;;;;;5092537;28;20465;-68
2023/02/02 01:30:46;;;;;;;9.70;2.15;;;5.80;99.90;;;;;;5093575;28;20106;-67
2023/02/02 01:33:12;;;;;;;13.30;1.80;;;5.80;99.90;;;;;;5092279;28;20024;-68
2023/02/02 01:35:54;;;;;;;7.22;1.92;;;5.70;99.90;;;;;;5088127;28;20453;-67
2023/02/02 01:38:20;;;;;;;10.02;1.90;;;5.70;99.90;;;;;;5085934;28;20093;-67
2023/02/02 01:40:51;;;;;;;12.05;1.92;;;5.70;99.90;;;;;;5093670;28;20024;-68
2023/02/02 01:43:28;;;;;;;11.80;2.30;;;5.60;99.90;;;;;;5074052;28;20036;-68
2023/02/02 01:45:56;;;;;;;10.10;2.42;;;5.70;99.90;;;;;;5093545;28;20373;-67
2023/02/02 01:48:31;;;;;;;8.23;1.95;;;5.70;99.90;;;;;;5093338;28;20038;-68
2023/02/02 01:51:02;;;;;;;8.70;1.95;;;5.70;99.90;;;;;;5097586;28;20485;-67
2023/02/02 01:53:28;;;;;;;9.15;1.58;;;5.70;99.90;;;;;;5093008;28;20032;-67
2023/02/02 01:55:54;;;;;;;8.68;2.25;;;5.70;99.90;;;;;;5087984;28;20031;-68
2023/02/02 01:58:24;;;;;;;7.22;1.20;;;5.70;99.90;;;;;;5091807;28;20055;-68
2023/02/02 02:00:50;;;;;;;;;;;5.70;99.90;;;;;;5093916;28;20028;-67
2023/02/02 02:03:19;;;;;;;11.30;1.70;;;5.70;99.90;;;;;;5091736;28;20749;-68
2023/02/02 02:05:59;;;;;;;6.05;1.10;;;5.70;99.90;;;;;;5085017;28;20082;-67
2023/02/02 02:08:56;;;;;;;10.80;2.23;;;5.70;99.90;;;;;;5083987;28;20415;-67
2023/02/02 02:11:23;;;;;;;9.43;1.50;;;5.70;99.90;;;;;;5087347;28;20278;-67
2023/02/02 02:16:45;;;;;;;6.05;1.60;;;5.70;99.90;;;;;;5089153;28;20082;-67
2023/02/02 02:19:34;;;;;;;9.38;1.40;;;5.70;99.90;;;;;;5088085;28;20039;-67
2023/02/02 02:28:28;;;;;;;5.50;1.35;;;5.60;99.90;;;;;;5087593;28;20070;-68
2023/02/02 02:31:47;;;;;;;7.25;1.40;;;5.60;99.90;;;;;;5089770;28;20480;-68
2023/02/02 02:34:23;;;;;;;10.85;1.75;;;5.60;99.90;;;;;;5022080;28;20101;-67
2023/02/02 02:37:14;;;;;;;5.38;1.00;;;5.60;99.90;;;;;;5090220;28;20361;-67
2023/02/02 02:40:02;;;;;;;10.60;1.40;;;5.60;99.90;;;;;;5085138;28;20077;-67
2023/02/02 02:42:32;;;;;;;5.20;0.90;;;5.60;99.90;;;;;;5090640;28;20035;-67
2023/02/02 02:45:00;;;;;;;4.15;0.95;;;5.70;99.90;;;;;;5088618;28;20024;-67
2023/02/02 02:47:29;;;;;;;8.60;1.40;;;5.70;99.90;;;;;;5090337;28;20024;-67
2023/02/02 02:49:54;;;;;;;10.45;1.67;;;5.80;99.90;;;;;;5089456;28;20442;-67
2023/02/02 02:52:20;;;;;;;4.00;1.30;;;5.80;99.90;;;;;;5090761;28;20028;-68
2023/02/02 02:54:51;;;;;;;4.45;1.23;;;5.80;99.90;;;;;;5090707;28;20028;-67
2023/02/02 02:57:37;;;;;;;6.80;1.38;;;5.70;99.90;;;;;;5089628;28;20543;-68
2023/02/02 03:00:34;;;;;;;6.82;1.40;;;5.70;99.90;;;;;;5091880;28;20024;-67
2023/02/02 03:03:09;;;;;;;4.55;1.13;;;5.70;99.90;;;;;;5086310;28;20044;-67
2023/02/02 03:06:22;;;;;;;6.32;1.15;;;5.70;99.90;;;;;;5088129;28;20052;-68
2023/02/02 03:09:03;;;;;;;5.15;1.20;;;5.80;99.90;;;;;;5007334;28;20051;-68
2023/02/02 03:11:29;;;;;;;6.90;1.05;;;5.80;99.90;;;;;;5007935;28;20465;-68
2023/02/02 03:13:55;;;;;;;5.63;1.20;;;5.80;99.90;;;;;;5005740;28;20104;-67
2023/02/02 03:16:20;;;;;;;10.40;1.60;;;5.80;99.90;;;;;;5007383;28;20172;-68
2023/02/02 03:18:46;;;;;;;4.90;1.25;;;5.80;99.90;;;;;;5007667;28;20030;-68
2023/02/02 03:21:11;;;;;;;5.60;0.95;;;5.90;99.90;;;;;;5006634;28;20093;-68
2023/02/02 03:23:37;;;;;;;4.22;0.73;;;5.90;99.90;;;;;;5007624;28;20049;-68
2023/02/02 03:26:03;;;;;;;7.85;1.08;;;5.90;99.90;;;;;;5000658;28;20058;-68
2023/02/02 03:28:29;;;;;;;4.03;0.80;;;5.80;99.90;;;;;;4988456;28;20054;-68
2023/02/02 03:30:57;;;;;;;5.75;1.20;;;5.80;99.90;;;;;;4993876;28;20100;-68
2023/02/02 03:33:23;;;;;;;6.38;1.13;;;5.80;99.90;;;;;;4996968;28;20075;-68
2023/02/02 03:35:49;;;;;;;6.95;1.58;;;5.70;99.90;;;;;;4997352;28;20061;-68
2023/02/02 03:38:14;;;;;;;4.82;1.00;;;5.80;99.90;;;;;;4995662;28;20026;-68
2023/02/02 03:40:40;;;;;;;5.45;1.08;;;5.90;99.90;;;;;;5078837;28;20028;-68
2023/02/02 03:43:05;;;;;;;6.80;1.08;;;5.80;99.90;;;;;;5075619;28;20036;-68
2023/02/02 03:45:34;;;;;;;1.92;0.60;;;5.80;99.90;;;;;;5074416;28;20033;-68
2023/02/02 03:48:00;;;;;;;3.53;0.90;;;5.70;99.90;;;;;;5077921;28;20020;-68
2023/02/02 03:50:26;;;;;;;4.15;0.90;;;5.70;99.90;;;;;;5081623;28;20016;-68
2023/02/02 03:52:52;;;;;;;1.83;0.52;;;5.70;99.90;;;;;;5079571;28;20385;-68
2023/02/02 03:55:18;;;;;;;2.05;0.80;;;5.70;99.90;;;;;;5075366;28;20039;-68
2023/02/02 03:57:43;;;;;;;3.83;0.90;;;5.70;99.90;;;;;;5078680;28;20024;-68
2023/02/02 04:00:09;;;;;;;3.00;0.70;;;5.60;99.90;;;;;;5072394;28;20159;-68
2023/02/02 04:02:35;;;;;;;3.00;0.95;;;5.60;99.90;;;;;;5072129;28;20043;-68
2023/02/02 04:05:01;;;;;;;4.68;0.70;;;5.60;99.90;;;;;;5070061;28;20036;-68
2023/02/02 04:07:26;;;;;;;3.60;1.10;;;5.70;99.90;;;;;;5079415;28;20028;-68
2023/02/02 04:09:52;;;;;;;3.85;0.73;;;5.70;99.90;;;;;;5078667;28;20042;-68
2023/02/02 04:12:17;;;;;;;1.65;0.70;;;5.70;99.90;;;;;;5077600;28;20135;-68
2023/02/02 04:14:43;;;;;;;2.88;0.43;;;5.80;99.90;;;;;;5078279;28;20094;-68
2023/02/02 04:17:08;;;;;;;4.38;1.27;;;5.80;99.90;;;;;;5068773;28;20029;-68
2023/02/02 04:19:34;;;;;;;3.92;1.00;;;5.80;99.90;;;;;;5071344;28;20082;-65
2023/02/02 04:22:00;;;;;;;7.57;0.75;;;5.70;99.90;;;;;;5078161;28;20528;-68
2023/02/02 04:24:25;;;;;;;4.97;1.20;;;5.70;99.90;;;;;;5077729;28;20103;-68
2023/02/02 04:26:51;;;;;;;2.65;0.70;;;5.70;99.90;;;;;;5067230;28;20080;-68
2023/02/02 04:29:16;;;;;;;3.58;1.13;;;5.70;99.90;;;;;;5082900;28;20101;-68
2023/02/02 04:31:42;;;;;;;3.13;0.90;;;5.70;99.90;;;;;;5081946;28;20104;-67
2023/02/02 04:34:08;;;;;;;3.33;0.85;;;5.70;99.90;;;;;;5081461;28;20452;-68
2023/02/02 04:36:33;;;;;;;3.85;1.10;;;5.70;99.90;;;;;;5080231;28;20017;-68
2023/02/02 04:38:59;;;;;;;5.47;0.90;;;5.80;99.90;;;;;;5082474;28;20378;-68
2023/02/02 04:41:24;;;;;;;4.25;0.98;;;5.70;99.90;;;;;;5083388;28;20020;-68
2023/02/02 04:43:50;;;;;;;2.63;0.90;;;5.80;99.90;;;;;;5082051;28;20549;-67
2023/02/02 04:46:16;;;;;;;4.50;0.88;;;5.80;99.90;;;;;;5075180;28;20166;-68
2023/02/02 04:48:42;;;;;;;3.42;0.88;;;5.80;99.90;;;;;;5073155;28;20032;-68
2023/02/02 04:51:13;;;;;;;7.70;0.82;;;5.80;99.90;;;;;;5072212;28;20036;-67
2023/02/02 04:53:40;;;;;;;8.13;1.13;;;5.80;99.90;;;;;;5070719;28;20469;-66
2023/02/02 04:56:09;;;;;;;2.95;0.90;;;5.80;99.90;;;;;;5072447;28;20481;-67
2023/02/02 04:58:35;;;;;;;4.38;1.08;;;5.80;99.90;;;;;;5070568;28;20060;-67
2023/02/02 05:01:06;;;;;;;4.80;0.93;;;5.80;99.90;;;;;;5072622;28;20032;-67
2023/02/02 05:03:32;;;;;;;5.72;1.33;;;5.90;99.90;;;;;;5071911;28;20035;-67
2023/02/02 05:06:04;;;;;;;4.15;1.10;;;5.90;99.90;;;;;;5073107;28;20032;-67
2023/02/02 05:08:30;;;;;;;4.57;0.80;;;6.00;99.90;;;;;;5070102;28;20040;-67
2023/02/02 05:10:56;;;;;;;8.88;0.90;;;6.00;99.90;;;;;;5076575;28;20028;-67
2023/02/02 05:13:22;;;;;;;4.10;0.93;;;6.00;99.90;;;;;;5071347;28;20040;-70
2023/02/02 05:15:47;;;;;;;3.63;0.98;;;6.00;99.90;;;;;;5073694;28;20032;-68
2023/02/02 05:18:13;;;;;;;7.05;1.05;;;5.90;99.90;;;;;;5069792;28;20056;-68
2023/02/02 05:20:39;;;;;;;4.18;1.00;;;6.00;99.90;;;;;;5073380;28;20051;-67
2023/02/02 05:23:04;;;;;;;4.40;1.02;;;6.00;99.90;;;;;;5082060;28;20455;-67
2023/02/02 05:25:30;;;;;;;6.70;1.60;;;6.00;99.90;;;;;;5073319;28;20470;-68
2023/02/02 05:27:55;;;;;;;4.90;1.30;;;6.00;99.90;;;;;;5073111;28;20093;-68
2023/02/02 05:30:22;;;;;;;6.43;1.77;;;6.00;99.90;;;;;;5072991;28;20076;-67
2023/02/02 05:32:48;;;;;;;5.28;1.85;;;6.00;99.90;;;;;;5067944;28;20075;-67
2023/02/02 05:35:13;;;;;;;8.00;1.48;;;6.00;99.90;;;;;;5072333;28;20020;-67
2023/02/02 05:37:41;;;;;;;8.85;1.45;;;6.00;99.90;;;;;;5072959;28;20056;-67
2023/02/02 05:40:07;;;;;;;8.32;2.05;;;5.90;99.90;;;;;;5072150;28;20048;-67
2023/02/02 05:42:33;;;;;;;8.68;2.13;;;6.00;99.90;;;;;;5073489;28;20028;-67
2023/02/02 05:44:59;;;;;;;5.35;1.52;;;6.00;99.90;;;;;;5071803;28;20118;-67
2023/02/02 05:47:24;;;;;;;4.32;1.25;;;6.00;99.90;;;;;;5059644;28;20024;-67
2023/02/02 05:49:50;;;;;;;6.95;1.52;;;6.00;99.90;;;;;;5067849;28;21589;-67
2023/02/02 05:52:18;;;;;;;11.40;1.60;;;6.00;99.90;;;;;;5072152;28;20039;-68
2023/02/02 05:54:44;;;;;;;5.65;1.40;;;6.00;99.90;;;;;;5072648;28;20103;-68
2023/02/02 05:57:10;;;;;;;6.43;1.08;;;6.00;99.90;;;;;;5072635;28;20449;-69
2023/02/02 05:59:35;;;;;;;5.60;1.67;;;6.00;99.90;;;;;;5067408;28;20469;-68
2023/02/02 06:02:01;;;;;;;9.68;1.85;;;6.00;99.90;;;;;;5063990;28;20031;-67
2023/02/02 06:04:26;;;;;;;7.75;1.73;;;6.00;99.90;;;;;;5072600;28;20032;-67
2023/02/02 06:06:52;;;;;;;7.00;1.77;;;6.00;99.90;;;;;;5067524;28;20453;-69
2023/02/02 06:09:18;;;;;;;8.50;2.10;;;5.90;99.90;;;;;;5061594;28;20061;-67
2023/02/02 06:11:44;;;;;;;7.97;1.50;;;5.90;99.90;;;;;;5070663;28;20029;-67
2023/02/02 06:14:09;;;;;;;10.98;2.03;;;6.00;99.90;;;;;;5067164;28;20097;-67
2023/02/02 06:16:36;;;;;;;5.65;1.88;;;6.00;99.90;;;;;;5072193;28;20025;-68
2023/02/02 06:19:02;;;;;;;7.57;1.70;;;6.00;99.90;;;;;;5070455;28;20033;-68
2023/02/02 06:21:30;;;;;;;7.20;1.92;;;6.00;99.90;;;;;;5071784;28;20534;-68
2023/02/02 06:23:56;;;;;;;8.95;1.95;;;5.90;99.90;;;;;;5070854;28;20178;-68
2023/02/02 06:26:21;;;;;;;8.65;2.03;;;5.90;99.90;;;;;;5068328;28;20051;-67
2023/02/02 06:28:50;;;;;;;8.60;1.73;;;5.90;99.90;;;;;;5091974;28;20499;-67
2023/02/02 06:31:18;;;;;;;11.75;2.10;;;6.10;99.90;;;;;;5090888;28;20020;-67
2023/02/02 06:33:44;;;;;;;13.30;2.85;;;6.10;99.90;;;;;;5091765;28;20028;-66
2023/02/02 06:36:10;;;;;;;10.80;2.10;;;6.10;99.90;;;;;;5090997;28;20358;-68
2023/02/02 06:38:35;;;;;;;9.60;1.80;;;6.10;99.90;;;;;;5091614;28;20077;-70
2023/02/02 06:41:02;;;;;;;11.93;2.13;;;6.10;99.90;;;;;;5091074;28;20354;-69
2023/02/02 06:43:30;;;;;;;11.13;2.40;;;6.20;99.90;;;;;;5091318;28;20552;-69
2023/02/02 06:45:59;;;;;;;10.13;1.60;;;6.20;99.90;;;;;;5091256;28;20024;-75
2023/02/02 06:48:25;;;;;;;15.73;2.17;;;6.20;99.90;;;;;;5090942;28;20024;-75
2023/02/02 06:50:52;;;;;;;8.85;2.03;;;6.20;99.90;;;;;;5090569;28;20027;-66
2023/02/02 06:53:21;;;;;;;9.45;1.65;;;6.30;99.90;;;;;;5090179;28;20035;-67
2023/02/02 06:55:55;;;;;;;7.43;1.55;;;6.30;99.90;;;;;;5091682;28;20449;-67
2023/02/02 06:58:20;;;;;;;11.45;2.20;;;6.40;99.90;;;;;;5091064;28;20097;-66
2023/02/02 07:00:47;;;;;;;10.18;1.85;;;6.30;99.90;;;;;;5091757;28;20480;-67
2023/02/02 07:03:13;;;;;;;9.68;2.00;;;6.30;99.90;;;;;;5093726;28;20111;-67
2023/02/02 07:05:39;;;;;;;9.05;2.08;;;6.30;99.90;;;;;;5091668;28;20346;-67
2023/02/02 07:08:04;;;;;;;6.78;1.80;;;6.40;99.90;;;;;;5091026;28;20024;-67
2023/02/02 07:10:30;;;;;;;11.38;1.50;;;6.40;99.90;;;;;;5092787;28;20020;-68
2023/02/02 07:12:56;;;;;;;8.27;1.73;;;6.30;99.90;;;;;;5090861;28;20107;-68
2023/02/02 07:15:21;;;;;;;6.13;1.63;;;6.30;99.90;;;;;;5101330;28;20149;-67
2023/02/02 07:17:47;;;;;;;8.43;1.75;;;6.30;99.90;;;;;;5097941;28;20488;-67
2023/02/02 07:20:12;;;;;;;6.18;1.33;;;6.40;99.90;;;;;;5098074;28;20023;-68
2023/02/02 07:22:39;;;;;;;8.57;1.55;;;6.40;99.90;;;;;;5090099;28;20469;-67
2023/02/02 07:25:06;;;;;;;5.68;1.10;;;6.50;99.90;;;;;;5090260;28;20032;-69
2023/02/02 07:27:32;;;;;;;3.70;1.15;;;6.50;99.90;;;;;;5091219;28;20056;-68
2023/02/02 07:29:57;;;;;;;4.28;1.02;;;6.40;99.90;;;;;;5090459;28;20025;-68
2023/02/02 07:32:23;;;;;;;4.70;1.17;;;6.50;99.90;;;;;;5091431;28;20117;-69
2023/02/02 07:34:49;;;;;;;6.55;1.42;;;6.50;99.90;;;;;;5091370;28;20421;-69
2023/02/02 07:37:15;;;;;;;3.85;1.20;;;6.50;99.90;;;;;;5092901;28;20054;-72
2023/02/02 07:39:42;;;;;;;3.22;1.10;;;6.40;99.90;;;;;;5081561;28;20036;-66
2023/02/02 07:42:10;;;;;;;9.18;1.73;;;6.40;99.90;;;;;;5089784;28;20017;-67
2023/02/02 07:44:36;;;;;;;4.70;2.00;;;6.40;99.90;;;;;;5085728;28;20024;-66
2023/02/02 07:47:02;;;;;;;5.57;1.45;;;6.40;99.90;;;;;;5084255;28;20530;-66
2023/02/02 07:49:27;;;;;;;5.70;1.17;;;6.40;99.90;;;;;;5081409;28;20025;-66
2023/02/02 07:51:53;;;;;;;4.78;1.20;;;6.40;99.90;;;;;;5086513;28;20103;-67
2023/02/02 07:54:19;;;;;;;5.88;1.60;;;6.40;99.90;;;;;;5088579;28;20055;-66
2023/02/02 07:56:45;;;;;;;6.90;1.20;;;6.30;99.90;;;;;;5087423;28;20744;-66
2023/02/02 07:59:10;;;;;;;3.78;1.10;;;6.50;99.90;;;;;;5087751;28;20099;-67
2023/02/02 08:01:36;;;;;;;5.50;1.70;;;6.40;99.90;;;;;;5092302;28;20039;-67
2023/02/02 08:04:02;;;;;;;6.65;1.40;;;6.40;99.90;;;;;;5093078;28;20035;-67
2023/02/02 08:06:33;;;;;;;10.57;2.08;;;6.50;99.90;;;;;;5090911;28;20081;-66
2023/02/02 08:09:00;;;;;;;9.70;1.60;;;6.50;99.90;;;;;;5092584;28;20032;-67
2023/02/02 08:11:27;;;;;;;6.65;1.45;;;6.50;99.90;;;;;;5094943;28;20032;-67
2023/02/02 08:13:55;;;;;;;4.65;1.48;;;6.50;99.90;;;;;;5094128;28;20028;-67
2023/02/02 08:16:23;;;;;;;6.65;1.38;;;6.60;99.90;;;;;;5093464;28;20032;-67
2023/02/02 08:18:50;;;;;;;6.40;1.70;;;6.60;99.90;;;;;;5086488;28;20555;-67
2023/02/02 08:21:16;;;;;;;4.93;1.60;;;6.60;99.90;;;;;;5086659;28;20103;-67
2023/02/02 08:23:43;;;;;;;6.68;1.60;;;6.60;99.90;;;;;;5093155;28;20047;-67
2023/02/02 08:26:21;;;;;;;7.55;1.70;;;6.60;99.90;;;;;;5087042;28;20513;-67
2023/02/02 08:28:50;;;;;;;7.85;1.67;;;6.70;99.90;;;;;;5073776;28;20024;-67
2023/02/02 08:31:22;;;;;;;5.60;1.75;;;6.70;99.90;;;;;;5073078;28;20112;-66
2023/02/02 08:33:48;;;;;;;7.72;1.63;;;6.80;99.90;;;;;;5072098;28;20043;-66
2023/02/02 08:36:16;;;;;;;6.22;1.75;;;6.80;99.90;;;;;;5072990;28;20032;-68
2023/02/02 08:38:41;;;;;;;9.02;2.08;;;6.80;99.90;;;;;;5073545;28;20028;-68
2023/02/02 08:41:11;;;;;;;6.82;1.52;;;6.70;99.90;;;;;;5080094;28;20032;-68
2023/02/02 08:43:37;;;;;;;6.78;2.10;;;6.80;99.90;;;;;;5083719;28;20035;-68
2023/02/02 08:46:03;;;;;;;7.57;1.48;;;6.90;99.90;;;;;;5075740;28;20043;-68
2023/02/02 08:48:29;;;;;;;7.20;1.58;;;6.90;99.90;;;;;;5073200;28;20099;-68
2023/02/02 08:50:56;;;;;;;9.80;1.75;;;6.90;99.90;;;;;;5073611;28;20166;-68
2023/02/02 08:53:22;;;;;;;10.93;1.65;;;6.80;99.90;;;;;;5072400;28;20032;-68
2023/02/02 08:55:48;;;;;;;5.35;1.58;;;6.80;99.90;;;;;;5071189;28;20666;-68
2023/02/02 08:58:14;;;;;;;9.10;2.03;;;6.80;99.90;;;;;;5072531;28;20025;-68
2023/02/02 09:00:39;;;;;;;9.15;1.58;;;6.90;99.90;;;;;;5073653;28;20028;-68
2023/02/02 09:03:05;;;;;;;7.13;1.55;;;6.90;99.90;;;;;;5072496;28;20044;-68
2023/02/02 09:05:31;;;;;;;8.25;1.77;;;7.00;99.90;;;;;;5072718;28;20020;-69
2023/02/02 09:07:56;;;;;;;6.28;1.30;;;7.00;99.90;;;;;;5072854;28;20028;-68
2023/02/02 09:10:22;;;;;;;5.70;1.42;;;7.00;99.90;;;;;;5080047;28;20025;-67
2023/02/02 09:12:48;;;;;;;8.43;1.83;;;7.00;99.90;;;;;;5064004;28;20382;-67
2023/02/02 09:15:14;;;;;;;9.25;1.85;;;7.00;99.90;;;;;;5071618;28;20036;-68
2023/02/02 09:17:39;;;;;;;8.82;1.60;;;7.10;99.90;;;;;;5073669;28;20060;-67
2023/02/02 09:20:05;;;;;;;8.20;1.60;;;7.10;99.90;;;;;;5066924;28;20021;-67
2023/02/02 09:22:32;;;;;;;9.32;2.08;;;7.10;99.90;;;;;;5071789;28;20029;-68
2023/02/02 09:24:57;;;;;;;7.35;1.90;;;7.20;99.90;;;;;;5081047;28;20370;-67
2023/02/02 09:27:23;;;;;;;8.48;1.65;;;7.20;99.90;;;;;;5076438;28;20051;-68
2023/02/02 09:29:48;;;;;;;16.67;2.08;;;7.20;99.90;;;;;;5072395;28;20491;-67
2023/02/02 09:32:14;;;;;;;13.88;2.95;;;7.20;99.90;;;;;;5070660;28;20542;-67
2023/02/02 09:34:40;;;;;;;10.77;2.78;;;7.30;99.90;;;;;;5072173;28;20021;-67
2023/02/02 09:37:05;;;;;;;8.38;2.38;;;7.30;99.90;;;;;;5072079;28;20492;-67
2023/02/02 09:39:31;;;;;;;16.48;2.65;;;7.30;99.90;;;;;;5072074;28;20032;-67
2023/02/02 09:42:33;;;;;;;10.57;2.00;;;7.40;99.90;;;;;;5072370;28;20031;-67
2023/02/02 09:45:06;;;;;;;9.38;2.10;;;7.40;99.90;;;;;;5022232;28;20048;-67
2023/02/02 09:47:54;;;;;;;9.73;2.35;;;7.40;99.90;;;;;;5071739;28;20032;-67
2023/02/02 09:50:23;;;;;;;9.07;2.22;;;7.40;99.90;;;;;;5071326;28;20074;-67
2023/02/02 09:52:57;;;;;;;13.10;2.13;;;7.30;99.90;;;;;;5072654;28;20024;-67
2023/02/02 09:56:01;;;;;;;14.30;2.33;;;7.30;99.90;;;;;;5071956;28;20021;-66
2023/02/02 09:58:40;;;;;;;13.07;2.40;;;7.30;99.90;;;;;;5022259;28;20033;-66
2023/02/02 10:01:20;;;;;;;6.90;1.95;;;7.30;99.90;;;;;;5069429;28;20033;-66
2023/02/02 10:04:06;;;;;;;10.30;2.75;;;7.20;99.90;;;;;;5069236;28;20044;-66
2023/02/02 10:06:36;;;;;;;6.45;2.08;;;7.20;99.90;;;;;;5066351;28;20021;-66
2023/02/02 10:09:16;;;;;;;11.25;3.05;;;7.10;99.90;;;;;;5076402;28;20028;-66
2023/02/02 10:12:16;;;;;;;10.23;2.08;;;7.10;99.90;;;;;;5078249;28;20032;-66
2023/02/02 10:14:45;;;;;;;9.73;2.13;;;7.10;99.90;;;;;;5064346;28;20093;-67
2023/02/02 10:17:42;;;;;;;6.85;1.90;;;7.10;99.90;;;;;;5068489;28;20500;-67
2023/02/02 10:20:21;;;;;;;10.05;2.60;;;7.10;99.90;;;;;;5066586;28;20040;-67
2023/02/02 10:22:48;;;;;;;8.90;2.63;;;7.20;99.90;;;;;;5065680;28;20044;-67
2023/02/02 10:25:15;;;;;;;9.20;2.42;;;7.20;99.90;;;;;;5076708;28;20811;-66
2023/02/02 10:27:50;;;;;;;7.50;1.90;;;7.20;99.90;;;;;;5078243;28;20127;-68
2023/02/02 10:30:26;;;;;;;10.05;2.08;;;7.20;99.90;;;;;;5087669;28;20317;-68
2023/02/02 10:33:06;;;;;;;9.13;1.90;;;7.20;99.90;;;;;;5089110;28;20024;-68
2023/02/02 10:35:46;;;;;;;9.85;2.30;;;7.10;99.90;;;;;;5090486;28;20063;-68
2023/02/02 10:38:35;;;;;;;9.95;2.28;;;7.20;99.90;;;;;;5086610;28;20033;-68
2023/02/02 10:41:04;;;;;;;8.55;2.10;;;7.20;99.90;;;;;;5090895;28;20028;-68
2023/02/02 10:43:58;;;;;;;7.60;1.70;;;7.10;99.90;;;;;;5079362;28;20044;-68
2023/02/02 10:46:33;;;;;;;14.07;2.70;;;7.10;99.90;;;;;;5083083;28;20012;-68
2023/02/02 10:49:20;;;;;;;9.35;1.77;;;7.10;99.90;;;;;;5089861;28;20062;-68
2023/02/02 10:52:03;;;;;;;6.78;1.90;;;7.20;99.90;;;;;;5091253;28;20032;-68
2023/02/02 10:54:44;;;;;;;5.80;1.90;;;7.20;99.90;;;;;;5094680;28;20039;-68
2023/02/02 10:57:14;;;;;;;9.32;1.90;;;7.20;99.90;;;;;;5100615;28;20048;-68
2023/02/02 10:59:54;;;;;;;8.65;2.05;;;7.20;99.90;;;;;;5092242;28;20106;-68
2023/02/02 11:02:20;;;;;;;6.50;1.83;;;7.20;99.90;;;;;;5090327;28;20158;-68
2023/02/02 11:07:30;;;;;;;4.65;1.92;;;7.20;99.90;;;;;;5089201;28;20043;-67
2023/02/02 11:09:56;;;;;;;7.35;1.73;;;7.30;99.90;;;;;;5095339;28;20023;-67
2023/02/02 11:12:24;;;;;;;10.40;1.90;;;7.20;99.90;;;;;;5097575;28;20161;-68
2023/02/02 11:15:04;;;;;;;5.72;1.27;;;7.20;99.90;;;;;;5090241;28;20032;-68
2023/02/02 11:17:30;;;;;;;5.45;1.60;;;7.20;99.90;;;;;;5090868;28;20540;-68
2023/02/02 11:19:55;;;;;;;8.55;2.15;;;7.20;99.90;;;;;;5090388;28;20025;-68
2023/02/02 11:22:37;;;;;;;6.68;1.73;;;7.30;99.90;;;;;;5090424;28;20130;-68
2023/02/02 11:25:31;;;;;;;6.13;1.90;;;7.30;99.90;;;;;;5076665;28;20150;-68
2023/02/02 11:27:57;;;;;;;11.07;1.70;;;7.30;99.90;;;;;;5082277;28;20485;-67
2023/02/02 11:30:26;;;;;;;8.00;2.05;;;7.50;99.90;;;;;;5077749;28;20024;-68
2023/02/02 11:32:51;;;;;;;7.70;1.88;;;7.50;99.90;;;;;;5090542;28;20107;-68
2023/02/02 11:35:22;;;;;;;11.15;1.88;;;7.60;99.90;;;;;;5095624;28;20183;-68
2023/02/02 11:37:54;;;;;;;10.00;1.92;;;7.60;99.90;;;;;;5097523;28;20028;-68
2023/02/02 11:40:40;;;;;;;9.98;2.00;;;7.70;99.90;;;;;;5100389;28;20476;-69
2023/02/02 11:43:20;;;;;;;10.13;1.88;;;7.70;99.90;;;;;;5090311;28;20039;-68
2023/02/02 11:46:04;;;;;;;3.83;1.20;;;7.70;99.90;;;;;;5097234;28;20024;-68
2023/02/02 11:48:37;;;;;;;6.82;2.13;;;7.60;99.90;;;;;;5088489;28;20103;-67
2023/02/02 11:51:04;;;;;;;9.88;2.08;;;7.60;99.90;;;;;;5090193;28;20483;-66
2023/02/02 11:53:44;;;;;;;8.00;1.40;;;7.50;99.90;;;;;;5081516;28;20485;-66
2023/02/02 11:56:18;;;;;;;6.67;1.50;;;7.40;99.90;;;;;;5089556;28;20073;-70
2023/02/02 11:58:51;;;;;;;6.28;1.25;;;7.40;99.90;;;;;;5078123;28;20110;-67
2023/02/02 12:01:34;;;;;;;5.95;1.30;;;7.40;99.90;;;;;;5089808;28;20024;-67
2023/02/02 12:04:22;;;;;;;6.47;1.70;;;7.30;99.90;;;;;;5087811;28;20039;-67
2023/02/02 12:06:47;;;;;;;10.13;1.48;;;7.40;99.90;;;;;;5091018;28;20031;-67
2023/02/02 12:09:24;;;;;;;7.28;1.70;;;7.40;99.90;;;;;;5090845;28;20024;-67
2023/02/02 12:12:02;;;;;;;4.82;1.40;;;7.30;99.90;;;;;;5085936;28;20131;-66
2023/02/02 12:14:33;;;;;;;11.13;1.60;;;7.40;99.90;;;;;;5086227;28;20033;-67
2023/02/02 12:17:43;;;;;;;9.43;1.60;;;7.40;99.90;;;;;;5089928;28;20020;-67
2023/02/02 12:20:35;;;;;;;8.73;2.20;;;7.30;99.90;;;;;;5071421;28;20087;-67
2023/02/02 12:23:13;;;;;;;6.20;1.60;;;7.30;99.90;;;;;;5089088;28;20036;-68
2023/02/02 12:26:03;;;;;;;6.43;1.88;;;7.20;99.90;;;;;;5081054;28;20047;-67
2023/02/02 12:28:41;;;;;;;;;;;7.00;99.90;;;;;;5081379;28;20488;-67
2023/02/02 12:31:15;;;;;;;9.68;1.60;;;6.90;99.90;;;;;;5089397;28;19904;-67
2023/02/02 12:33:50;;;;;;;6.22;2.00;;;6.80;99.90;;;;;;5089769;28;20038;-68
2023/02/02 12:36:24;;;;;;;2.88;1.02;;;6.70;99.90;;;;;;5089313;28;20028;-67
2023/02/02 12:39:29;;;;;;;7.93;2.08;;;6.70;99.90;;;;;;5093713;28;20448;-68
2023/02/02 12:42:24;;;;;;;11.40;1.80;;;6.60;99.90;;;;;;5050783;28;20473;-67
2023/02/02 12:45:31;;;;;;;7.97;1.58;;;6.50;99.90;;;;;;5087594;28;20109;-67
2023/02/02 12:48:24;;;;;;;10.25;1.55;;;6.50;99.90;;;;;;5033634;28;20033;-68
2023/02/02 12:51:19;;;;;;;10.02;1.63;;;6.50;99.90;;;;;;5097785;28;20507;-67
2023/02/02 12:54:01;;;;;;;8.50;1.60;;;6.40;99.90;;;;;;5089941;28;20052;-68
2023/02/02 12:56:55;;;;;;;5.10;1.50;;;6.40;99.90;;;;;;5087226;28;20024;-68
2023/02/02 12:59:57;;;;;;;6.88;1.40;;;6.30;99.90;;;;;;5092265;28;20020;-68
2023/02/02 13:02:39;;;;;;;6.45;1.42;;;6.30;99.90;;;;;;5097240;28;20031;-68
2023/02/02 13:05:20;;;;;;;6.65;2.08;;;6.20;99.90;;;;;;5093145;28;20016;-68
2023/02/02 13:08:08;;;;;;;8.27;2.03;;;6.10;99.90;;;;;;5093626;28;20103;-68
2023/02/02 13:10:38;;;;;;;6.82;2.17;;;6.10;99.90;;;;;;5084896;28;20093;-66
2023/02/02 13:13:16;;;;;;;7.15;1.73;;;6.00;99.90;;;;;;5088948;28;20243;-67
2023/02/02 13:15:47;;;;;;;4.68;1.30;;;6.00;99.90;;;;;;5093547;28;20035;-67
2023/02/02 13:18:24;;;;;;;7.82;1.40;;;6.10;99.90;;;;;;5092387;28;20427;-68
2023/02/02 13:21:27;;;;;;;7.15;1.45;;;6.00;99.90;;;;;;5093667;28;20032;-68
2023/02/02 13:23:58;;;;;;;8.35;1.38;;;6.00;99.90;;;;;;5010251;28;20042;-69
2023/02/02 13:26:28;;;;;;;3.67;1.45;;;5.90;99.90;;;;;;5071496;28;20042;-68
2023/02/02 13:29:09;;;;;;;7.10;1.55;;;5.90;99.90;;;;;;5088115;28;20107;-68
2023/02/02 13:31:52;;;;;;;8.80;1.90;;;5.90;99.90;;;;;;5093027;28;20465;-68